createdAt,value
2023-03-25T00:02:57.285Z,98896.66
2023-03-25T00:07:59.047Z,98897.34
2023-03-25T00:13:04.909Z,98898.53
2023-03-25T00:18:06.726Z,98894.25
2023-03-25T00:23:08.415Z,98878.91
2023-03-25T00:28:10.128Z,98867.78
2023-03-25T00:33:13.351Z,98858.38
2023-03-25T00:38:15.021Z,98858.03
2023-03-25T00:43:16.772Z,98871.53
2023-03-25T00:48:18.494Z,98868.59
2023-03-25T00:53:21.159Z,98862.66
2023-03-25T00:58:22.854Z,98859.69
2023-03-25T01:03:29.065Z,98867.53
2023-03-25T01:08:32.126Z,98864.91
2023-03-25T01:13:34.313Z,98858.78
2023-03-25T01:18:38.117Z,98851.75
2023-03-25T01:23:39.894Z,98840.56
2023-03-25T01:28:43.241Z,98840.69
2023-03-25T01:33:44.959Z,98839.63
2023-03-25T01:38:48.079Z,98836.66
2023-03-25T01:44:05.052Z,98818.84
2023-03-25T01:49:10.019Z,98815.00
2023-03-25T01:54:17.899Z,98796.75
2023-03-25T01:59:25.034Z,98789.16
2023-03-25T02:04:45.380Z,98786.81
2023-03-25T02:09:47.238Z,98802.47
2023-03-25T02:14:49.082Z,98792.81
2023-03-25T02:20:11.124Z,98791.13
2023-03-25T02:25:22.042Z,98788.06
2023-03-25T02:30:48.808Z,98782.31
2023-03-25T02:36:10.569Z,98783.00
2023-03-25T02:41:31.105Z,98770.16
2023-03-25T02:46:36.300Z,98764.84
2023-03-25T02:51:46.150Z,98767.69
2023-03-25T02:56:50.890Z,98764.25
2023-03-25T03:01:58.453Z,98762.66
2023-03-25T03:07:01.173Z,98759.56
2023-03-25T03:12:27.431Z,98776.94
2023-03-25T03:17:50.324Z,98766.19
2023-03-25T03:23:26.018Z,98773.00
2023-03-25T03:28:33.530Z,98772.31
2023-03-25T03:33:50.707Z,98775.09
2023-03-25T03:39:16.319Z,98774.53
2023-03-25T03:44:23.007Z,98767.06
2023-03-25T03:49:38.254Z,98779.41
2023-03-25T03:54:52.278Z,98775.78
2023-03-25T04:00:16.085Z,98783.09
2023-03-25T04:05:21.669Z,98788.34
2023-03-25T04:10:34.941Z,98791.78
2023-03-25T04:15:37.788Z,98785.34
2023-03-25T04:20:45.025Z,98786.97
2023-03-25T04:25:53.558Z,98782.03
2023-03-25T04:30:56.913Z,98795.25
2023-03-25T04:36:01.946Z,98795.53
2023-03-25T04:41:06.934Z,98794.16
2023-03-25T04:46:13.154Z,98795.53
2023-03-25T04:51:16.083Z,98792.06
2023-03-25T04:56:18.863Z,98794.31
2023-03-25T05:01:24.659Z,98799.66
2023-03-25T05:06:26.419Z,98794.06
2023-03-25T05:11:29.065Z,98804.72
2023-03-25T05:16:31.079Z,98808.28
2023-03-25T05:21:37.596Z,98807.34
2023-03-25T05:26:41.778Z,98817.78
2023-03-25T05:31:45.793Z,98814.31
2023-03-25T05:36:47.751Z,98809.13
2023-03-25T05:41:50.456Z,98805.97
2023-03-25T05:46:52.172Z,98818.88
2023-03-25T05:51:55.781Z,98823.06
2023-03-25T05:56:57.462Z,98816.22
2023-03-25T06:01:59.575Z,98827.69
2023-03-25T06:07:01.603Z,98839.84
2023-03-25T06:12:04.172Z,98846.47
2023-03-25T06:17:05.876Z,98856.69
2023-03-25T06:22:09.429Z,98861.84
2023-03-25T06:27:20.452Z,98869.56
2023-03-25T06:32:22.100Z,98882.03
2023-03-25T06:37:26.092Z,98878.78
2023-03-25T06:42:28.997Z,98866.03
2023-03-25T06:48:03.361Z,98860.13
2023-03-25T06:53:05.228Z,98871.69
2023-03-25T06:58:06.946Z,98884.66
2023-03-25T07:03:09.709Z,98880.25
2023-03-25T07:08:11.797Z,98888.91
2023-03-25T07:13:13.612Z,98881.88
2023-03-25T07:18:15.497Z,98882.50
2023-03-25T07:23:17.410Z,98878.69
2023-03-25T07:28:19.340Z,98878.19
2023-03-25T07:33:22.369Z,98876.28
2023-03-25T07:38:24.773Z,98884.44
2023-03-25T07:43:26.577Z,98887.75
2023-03-25T07:48:37.849Z,98882.25
2023-03-25T07:53:42.511Z,98895.72
2023-03-25T07:58:45.565Z,98897.84
2023-03-25T08:03:47.570Z,98904.88
2023-03-25T08:08:49.432Z,98921.75
2023-03-25T08:13:52.221Z,98915.16
2023-03-25T08:18:54.724Z,98916.72
2023-03-25T08:24:04.928Z,98910.50
2023-03-25T08:29:07.688Z,98919.13
2023-03-25T08:34:13.245Z,98933.81
2023-03-25T08:39:17.388Z,98939.22
2023-03-25T08:44:19.268Z,98949.97
2023-03-25T08:49:21.068Z,98964.00
2023-03-25T08:54:23.295Z,98968.47
2023-03-25T08:59:25.291Z,98972.34
2023-03-25T09:04:27.201Z,98973.19
2023-03-25T09:09:29.901Z,98976.06
2023-03-25T09:14:31.603Z,98985.06
2023-03-25T09:19:38.025Z,98994.50
2023-03-25T09:24:40.649Z,99000.41
2023-03-25T09:29:42.372Z,98991.31
2023-03-25T09:34:45.022Z,98977.28
2023-03-25T09:39:47.059Z,98968.31
2023-03-25T09:44:55.812Z,98975.25
2023-03-25T09:50:01.141Z,98974.22
2023-03-25T09:55:18.542Z,98971.13
2023-03-25T10:00:23.662Z,98955.63
2023-03-25T10:05:34.656Z,98955.09
2023-03-25T10:11:01.411Z,98949.47
2023-03-25T10:16:11.463Z,98942.53
2023-03-25T10:21:21.660Z,98939.94
2023-03-25T10:26:32.873Z,98939.53
2023-03-25T10:31:40.167Z,98927.97
2023-03-25T10:36:51.915Z,98923.13
2023-03-25T10:42:31.806Z,98914.22
2023-03-25T10:47:39.115Z,98914.53
2023-03-25T10:52:42.018Z,98906.38
2023-03-25T10:57:44.452Z,98905.03
2023-03-25T11:02:50.548Z,98896.78
2023-03-25T11:07:58.745Z,98895.81
2023-03-25T11:13:06.840Z,98897.03
2023-03-25T11:18:12.345Z,98894.56
2023-03-25T11:23:31.395Z,98886.78
2023-03-25T11:28:38.439Z,98909.25
2023-03-25T11:33:43.551Z,98929.63
2023-03-25T11:38:51.022Z,98934.53
2023-03-25T11:43:52.749Z,98899.69
2023-03-25T11:48:54.565Z,98885.53
2023-03-25T11:54:12.504Z,98865.25
2023-03-25T11:59:23.148Z,98857.75
2023-03-25T12:04:25.054Z,98849.34
2023-03-25T12:09:31.992Z,98844.13
2023-03-25T12:15:02.909Z,98838.84
2023-03-25T12:20:16.768Z,98837.38
2023-03-25T12:25:58.668Z,98826.84
2023-03-25T12:31:25.332Z,98820.31
2023-03-25T12:36:29.613Z,98813.44
2023-03-25T12:41:43.434Z,98808.81
2023-03-25T12:46:56.961Z,98838.06
2023-03-25T12:52:35.712Z,98836.53
2023-03-25T12:57:37.665Z,98808.47
2023-03-25T13:03:01.188Z,98814.59
2023-03-25T13:08:24.384Z,98813.06
2023-03-25T13:13:28.598Z,98820.41
2023-03-25T13:19:01.791Z,98800.47
2023-03-25T13:24:31.254Z,98781.34
2023-03-25T13:29:43.459Z,98773.59
2023-03-25T13:35:05.353Z,98778.06
2023-03-25T13:40:22.455Z,98771.56
2023-03-25T13:45:27.456Z,98762.50
2023-03-25T13:50:31.991Z,98768.75
2023-03-25T13:55:40.961Z,98760.78
2023-03-25T14:01:20.930Z,98756.63
2023-03-25T14:06:30.044Z,98763.91
2023-03-25T14:11:37.446Z,98769.38
2023-03-25T14:16:45.378Z,98753.81
2023-03-25T14:21:51.827Z,98748.72
2023-03-25T14:27:00.219Z,98754.94
2023-03-25T14:32:03.206Z,98759.84
2023-03-25T14:37:07.682Z,98798.44
2023-03-25T14:42:11.224Z,98885.13
2023-03-25T14:47:22.454Z,98885.56
2023-03-25T14:52:37.523Z,98861.31
2023-03-25T14:57:42.397Z,98853.75
2023-03-25T15:02:50.831Z,98844.78
2023-03-25T15:08:35.638Z,98823.16
2023-03-25T15:13:46.330Z,98790.31
2023-03-25T15:18:49.548Z,98798.84
2023-03-25T15:24:00.930Z,98811.94
2023-03-25T15:29:21.190Z,98819.72
2023-03-25T15:34:54.286Z,98816.25
2023-03-25T15:40:12.421Z,98813.13
2023-03-25T15:45:36.131Z,98816.16
2023-03-25T15:50:59.315Z,98809.63
2023-03-25T15:56:09.346Z,98816.50
2023-03-25T16:01:21.635Z,98819.56
2023-03-25T16:06:25.887Z,98830.06
2023-03-25T16:11:28.997Z,98843.19
2023-03-25T16:16:35.987Z,98845.53
2023-03-25T16:21:38.549Z,98842.31
2023-03-25T16:26:46.576Z,98839.88
2023-03-25T16:32:05.325Z,98843.25
2023-03-25T16:37:07.938Z,98837.59
2023-03-25T16:42:26.491Z,98833.72
2023-03-25T16:47:32.761Z,98831.00
2023-03-25T16:52:35.097Z,98828.81
2023-03-25T16:57:39.972Z,98844.13
2023-03-25T17:02:41.965Z,98831.47
2023-03-25T17:07:43.890Z,98834.75
2023-03-25T17:12:55.880Z,98832.53
2023-03-25T17:18:03.677Z,98833.03
2023-03-25T17:23:08.475Z,98831.41
2023-03-25T17:28:41.355Z,98837.47
2023-03-25T17:33:54.147Z,98846.28
2023-03-25T17:38:57.440Z,98847.28
2023-03-25T17:44:00.649Z,98846.81
2023-03-25T17:49:13.938Z,98854.03
2023-03-25T17:54:15.965Z,98849.66
2023-03-25T17:59:20.958Z,98850.75
2023-03-25T18:04:22.816Z,98839.78
2023-03-25T18:09:25.165Z,98845.47
2023-03-25T18:14:27.023Z,98852.69
2023-03-25T18:19:31.943Z,98865.00
2023-03-25T18:24:34.135Z,98865.50
2023-03-25T18:29:38.301Z,98872.66
2023-03-25T18:34:40.142Z,98882.72
2023-03-25T18:39:41.852Z,98887.56
2023-03-25T18:44:43.681Z,98900.69
2023-03-25T18:49:45.495Z,98889.34
2023-03-25T18:54:47.258Z,98881.91
2023-03-25T18:59:49.206Z,98890.50
2023-03-25T19:05:00.242Z,98892.44
2023-03-25T19:10:03.503Z,98881.78
2023-03-25T19:15:05.516Z,98884.41
2023-03-25T19:20:09.103Z,98880.94
2023-03-25T19:25:11.903Z,98876.78
2023-03-25T19:30:19.796Z,98871.09
2023-03-25T19:35:23.262Z,98886.31
2023-03-25T19:40:28.147Z,98892.00
2023-03-25T19:45:31.336Z,98895.13
2023-03-25T19:50:34.549Z,98934.59
2023-03-25T19:55:36.266Z,98906.84
2023-03-25T20:00:38.611Z,98898.00
2023-03-25T20:05:41.096Z,98860.00
2023-03-25T20:10:42.975Z,98855.03
2023-03-25T20:15:44.767Z,98873.22
2023-03-25T20:20:49.076Z,98876.25
2023-03-25T20:25:51.223Z,98875.66
2023-03-25T20:30:53.249Z,98881.34
2023-03-25T20:35:55.259Z,98880.69
2023-03-25T20:40:57.346Z,98886.50
2023-03-25T20:45:59.308Z,98858.31
2023-03-25T20:51:04.019Z,98845.78
2023-03-25T20:56:05.951Z,98842.09
2023-03-25T21:01:08.120Z,98848.72
2023-03-25T21:06:22.898Z,98850.47
2023-03-25T21:11:26.551Z,98847.97
2023-03-25T21:16:28.534Z,98843.34
2023-03-25T21:21:32.088Z,98849.97
2023-03-25T21:26:34.811Z,98851.53
2023-03-25T21:31:38.605Z,98853.50
2023-03-25T21:36:41.108Z,98852.84
2023-03-25T21:41:42.931Z,98855.69
2023-03-25T21:46:44.699Z,98846.66
2023-03-25T21:51:50.315Z,98855.03
2023-03-25T21:56:56.658Z,98852.28
2023-03-25T22:01:58.596Z,98850.31
2023-03-25T22:07:00.375Z,98859.78
2023-03-25T22:12:02.259Z,98865.34
2023-03-25T22:17:04.079Z,98850.31
2023-03-25T22:22:10.849Z,98863.97
2023-03-25T22:27:13.132Z,98859.53
2023-03-25T22:32:14.908Z,98857.25
2023-03-25T22:37:17.048Z,98844.63
2023-03-25T22:42:18.826Z,98846.19
2023-03-25T22:47:20.574Z,98852.28
2023-03-25T22:52:22.337Z,98866.34
2023-03-25T22:57:24.042Z,98852.31
2023-03-25T23:02:26.032Z,98853.22
2023-03-25T23:07:27.788Z,98860.25
2023-03-25T23:12:29.737Z,98855.94
2023-03-25T23:17:31.787Z,98852.59
2023-03-25T23:22:37.015Z,98861.34
2023-03-25T23:27:39.320Z,98864.50
2023-03-25T23:32:42.133Z,98847.50
2023-03-25T23:37:45.577Z,98860.59
2023-03-25T23:42:47.346Z,98863.69
2023-03-25T23:47:49.353Z,98866.22
2023-03-25T23:52:51.334Z,98866.03
2023-03-25T23:57:55.392Z,98867.06
